createdAt,value
2023-05-10T09:33:47.213Z,1.40
2023-05-10T09:39:08.665Z,1.40
2023-05-10T09:44:30.022Z,1.30
2023-05-10T09:49:52.464Z,1.17
2023-05-10T09:55:14.175Z,1.27
2023-05-10T10:00:45.950Z,1.20
2023-05-10T10:06:15.887Z,1.27
2023-05-10T10:11:44.243Z,1.40
2023-05-10T10:17:08.717Z,1.27
2023-05-10T10:22:30.321Z,1.27
2023-05-10T10:27:54.782Z,2.22
2023-05-10T10:33:37.787Z,1.20
2023-05-10T10:39:04.305Z,1.20
2023-05-10T10:44:33.269Z,1.17
2023-05-10T10:50:05.216Z,1.08
2023-05-10T10:55:28.487Z,1.40
2023-05-10T11:00:49.637Z,1.13
2023-05-10T11:06:10.775Z,1.25
2023-05-10T11:11:32.616Z,1.52
2023-05-10T11:16:54.772Z,1.20
2023-05-10T11:22:16.164Z,1.30
2023-05-10T11:27:38.937Z,1.08
2023-05-10T11:33:00.620Z,1.35
2023-05-10T11:38:22.061Z,1.02
2023-05-10T11:43:43.415Z,1.30
2023-05-10T11:49:08.021Z,1.30
2023-05-10T11:54:28.811Z,1.10
2023-05-10T11:59:54.723Z,1.10
2023-05-10T12:05:15.911Z,0.95
2023-05-10T12:10:37.051Z,1.08
2023-05-10T12:16:02.061Z,1.02
2023-05-10T12:21:23.698Z,1.23
2023-05-10T12:32:41.985Z,1.20
2023-05-10T12:38:03.124Z,1.00
2023-05-10T12:43:24.196Z,1.27
2023-05-10T12:48:45.554Z,1.17
2023-05-10T12:54:10.936Z,1.40
2023-05-10T12:59:32.601Z,1.25
2023-05-10T13:04:54.249Z,1.33
2023-05-10T13:10:15.693Z,1.20
2023-05-10T13:15:36.884Z,1.55
2023-05-10T13:20:58.655Z,1.45
2023-05-10T13:26:21.086Z,1.20
2023-05-10T13:31:42.387Z,1.33
2023-05-10T13:37:03.336Z,1.50
2023-05-10T13:42:25.019Z,1.60
2023-05-10T13:47:46.403Z,1.40
2023-05-10T13:53:07.732Z,1.75
2023-05-10T13:58:28.888Z,1.70
2023-05-10T14:03:50.954Z,1.30
2023-05-10T14:09:12.280Z,1.50
2023-05-10T14:14:33.136Z,1.60
2023-05-10T14:19:54.533Z,1.77
2023-05-10T14:25:15.905Z,1.40
2023-05-10T14:30:37.758Z,1.50
2023-05-10T14:35:58.941Z,1.52
2023-05-10T14:41:20.106Z,1.73
2023-05-10T14:46:41.532Z,1.77
2023-05-10T14:52:03.033Z,1.58
2023-05-10T14:57:23.620Z,1.77
2023-05-10T15:02:44.835Z,2.65
2023-05-10T15:08:07.003Z,2.08
2023-05-10T15:13:28.259Z,1.60
2023-05-10T15:18:50.215Z,2.15
2023-05-10T15:24:11.617Z,2.55
2023-05-10T15:29:33.771Z,2.22
2023-05-10T15:34:55.415Z,2.60
2023-05-10T15:40:17.422Z,2.60
2023-05-10T15:45:40.114Z,2.78
2023-05-10T15:51:01.297Z,2.88
2023-05-10T15:56:22.548Z,2.63
2023-05-10T16:01:43.505Z,2.60
2023-05-10T16:07:04.812Z,2.55
2023-05-10T16:12:26.259Z,2.33
2023-05-10T16:17:47.538Z,2.45
2023-05-10T16:23:08.726Z,2.60
2023-05-10T16:28:29.764Z,2.28
2023-05-10T16:33:50.509Z,2.80
2023-05-10T16:39:11.503Z,2.45
2023-05-10T16:44:32.635Z,2.38
2023-05-10T16:49:53.299Z,2.13
2023-05-10T16:55:14.084Z,2.67
2023-05-10T17:00:35.053Z,2.70
2023-05-10T17:05:56.273Z,2.58
2023-05-10T17:11:17.343Z,2.63
2023-05-10T17:16:38.180Z,3.28
2023-05-10T17:21:59.216Z,3.00
2023-05-10T17:27:19.924Z,2.95
2023-05-10T17:32:41.234Z,2.95
2023-05-10T17:38:02.244Z,2.88
2023-05-10T17:43:23.503Z,3.78
2023-05-10T17:48:44.102Z,3.38
2023-05-10T17:54:04.902Z,3.70
2023-05-10T17:59:25.632Z,3.38
2023-05-10T18:04:46.855Z,3.80
2023-05-10T18:10:08.288Z,3.22
2023-05-10T18:15:28.819Z,3.13
2023-05-10T18:20:56.366Z,3.30
2023-05-10T18:26:18.191Z,3.30
2023-05-10T18:31:39.306Z,3.83
2023-05-10T18:37:00.004Z,3.80
2023-05-10T18:42:20.667Z,3.75
2023-05-10T18:47:41.501Z,3.40
2023-05-10T18:53:03.886Z,3.70
2023-05-10T18:58:25.983Z,3.50
2023-05-10T19:03:46.608Z,6.38
2023-05-10T19:09:08.661Z,3.33
2023-05-10T19:14:29.827Z,3.67
2023-05-10T19:19:50.833Z,4.20
2023-05-10T19:25:13.038Z,4.22
2023-05-10T19:30:34.021Z,5.00
2023-05-10T19:35:55.317Z,4.70
2023-05-10T19:41:16.101Z,4.72
2023-05-10T19:46:36.906Z,5.13
2023-05-10T19:51:57.621Z,5.35
2023-05-10T19:57:18.497Z,5.85
2023-05-10T20:02:39.630Z,4.72
2023-05-10T20:08:00.060Z,4.82
2023-05-10T20:13:20.809Z,4.78
2023-05-10T20:18:41.626Z,5.55
2023-05-10T20:24:02.528Z,4.68
2023-05-10T20:29:22.921Z,4.97
2023-05-10T20:34:44.169Z,5.35
2023-05-10T20:40:05.515Z,8.00
2023-05-10T20:45:26.416Z,4.88
2023-05-10T20:50:47.093Z,4.43
2023-05-10T20:56:07.980Z,4.25
2023-05-10T21:01:28.620Z,4.70
2023-05-10T21:06:49.435Z,5.45
2023-05-10T21:12:10.019Z,5.60
2023-05-10T21:17:30.517Z,6.15
2023-05-10T21:22:51.354Z,5.50
2023-05-10T21:28:11.986Z,6.78
2023-05-10T21:33:32.780Z,6.55
2023-05-10T21:38:53.385Z,6.32
2023-05-10T21:44:14.211Z,6.65
2023-05-10T21:49:34.952Z,7.40
2023-05-10T21:54:55.695Z,7.03
2023-05-10T22:00:17.444Z,6.45
2023-05-10T22:05:38.866Z,6.43
2023-05-10T22:11:00.032Z,7.13
2023-05-10T22:16:21.237Z,6.70
2023-05-10T22:21:42.595Z,6.90
2023-05-10T22:27:03.590Z,6.28
2023-05-10T22:32:24.271Z,6.15
2023-05-10T22:37:44.845Z,6.45
2023-05-10T22:43:05.524Z,6.18
2023-05-10T22:48:25.985Z,6.80
2023-05-10T22:53:46.737Z,6.20
2023-05-10T22:59:07.258Z,6.05
2023-05-10T23:04:28.090Z,5.18
2023-05-10T23:09:48.874Z,5.22
2023-05-10T23:15:10.082Z,4.78
2023-05-10T23:20:30.809Z,4.15
2023-05-10T23:25:51.587Z,4.35
2023-05-10T23:31:12.249Z,4.05
2023-05-10T23:36:33.522Z,3.65
2023-05-10T23:41:54.905Z,3.40
2023-05-10T23:47:15.631Z,3.28
2023-05-10T23:52:36.178Z,3.40
2023-05-10T23:57:57.016Z,2.67
